Time;durP1;ratioP1;P1;durP2;ratioP2;P2;SDS_P1;SDS_P2;PMS_P1;PMS_P2;Temp;Humidity;BMP_temperature;BMP_pressure;BME280_temperature;BME280_humidity;BME280_pressure;Samples;Min_cycle;Max_cycle;Signal;HPM_P1;HPM_P2
2021/12/14 00:00:19;;;;;;;14.43;11.23;;;7.70;99.90;;;;;;5032547;28;20565;-56
2021/12/14 00:02:47;;;;;;;13.43;10.33;;;7.80;99.90;;;;;;5032327;28;20237;-57
2021/12/14 00:05:15;;;;;;;14.57;10.13;;;7.70;99.90;;;;;;5032448;28;20202;-56
2021/12/14 00:07:43;;;;;;;14.37;11.17;;;7.70;99.90;;;;;;5032412;28;20569;-55
2021/12/14 00:10:28;;;;;;;13.03;10.50;;;7.80;99.90;;;;;;5032510;28;20233;-56
2021/12/14 00:13:01;;;;;;;13.10;10.43;;;7.80;99.90;;;;;;5032263;28;20229;-56
2021/12/14 00:15:28;;;;;;;13.47;10.93;;;7.90;99.90;;;;;;5032306;28;20785;-56
2021/12/14 00:18:01;;;;;;;12.13;9.97;;;7.90;99.90;;;;;;5032318;28;20206;-56
2021/12/14 00:20:31;;;;;;;12.43;10.67;;;8.10;99.90;;;;;;5032370;28;20213;-56
2021/12/14 00:25:48;;;;;;;14.33;10.80;;;8.20;99.90;;;;;;5032299;28;20214;-55
2021/12/14 00:28:18;;;;;;;14.23;10.97;;;8.20;99.90;;;;;;5032198;28;20229;-57
2021/12/14 00:30:47;;;;;;;13.40;10.50;;;8.20;99.90;;;;;;5032305;28;20210;-55
2021/12/14 00:33:17;;;;;;;12.87;10.57;;;8.10;99.90;;;;;;5031891;28;20234;-56
2021/12/14 00:35:44;;;;;;;13.67;11.07;;;8.00;99.90;;;;;;5032215;28;20256;-56
2021/12/14 00:38:15;;;;;;;15.17;11.17;;;8.10;99.90;;;;;;5032503;28;20214;-56
2021/12/14 00:40:45;;;;;;;11.93;10.57;;;8.10;99.90;;;;;;5031860;28;20301;-56
2021/12/14 00:43:13;;;;;;;13.43;10.60;;;8.20;99.90;;;;;;5031586;28;20661;-56
2021/12/14 00:45:43;;;;;;;12.30;10.20;;;8.30;99.90;;;;;;5031698;28;20206;-57
2021/12/14 00:48:12;;;;;;;13.47;10.73;;;8.30;99.90;;;;;;5032032;28;20218;-56
2021/12/14 00:50:41;;;;;;;12.07;9.90;;;8.20;99.90;;;;;;5031927;28;20256;-56
2021/12/14 00:53:08;;;;;;;13.00;10.70;;;8.20;99.90;;;;;;5031551;28;20233;-57
2021/12/14 00:55:41;;;;;;;12.03;10.47;;;8.30;99.90;;;;;;5031766;28;20210;-56
2021/12/14 00:58:08;;;;;;;14.00;11.73;;;8.20;99.90;;;;;;5032034;28;20217;-57
2021/12/14 01:00:39;;;;;;;13.80;11.17;;;8.20;99.90;;;;;;5031899;28;20214;-56
2021/12/14 01:03:07;;;;;;;13.07;10.83;;;8.20;99.90;;;;;;5031467;28;20641;-56
2021/12/14 01:05:39;;;;;;;13.97;11.50;;;8.20;99.90;;;;;;5031686;28;20233;-56
2021/12/14 01:08:10;;;;;;;14.23;11.13;;;8.30;99.90;;;;;;5031649;28;20263;-57
2021/12/14 01:10:46;;;;;;;13.23;10.70;;;8.20;99.90;;;;;;5032052;28;20210;-56
2021/12/14 01:13:13;;;;;;;14.67;11.37;;;8.10;99.90;;;;;;5031435;28;20240;-56
2021/12/14 01:15:52;;;;;;;17.23;11.20;;;8.00;99.90;;;;;;5031778;28;20488;-56
2021/12/14 01:18:32;;;;;;;14.00;10.90;;;7.90;99.90;;;;;;5031680;28;20206;-56
2021/12/14 01:21:11;;;;;;;14.67;10.90;;;7.90;99.90;;;;;;5031467;28;20244;-56
2021/12/14 01:23:39;;;;;;;14.37;10.10;;;7.90;99.90;;;;;;5031786;28;20723;-56
2021/12/14 01:26:11;;;;;;;15.67;11.27;;;7.90;99.90;;;;;;5031664;28;20708;-56
2021/12/14 01:28:42;;;;;;;14.83;11.13;;;7.80;99.90;;;;;;5031799;28;20629;-56
2021/12/14 01:31:16;;;;;;;15.27;11.20;;;7.80;99.90;;;;;;5031707;28;20693;-55
2021/12/14 01:33:46;;;;;;;14.40;10.93;;;7.70;99.90;;;;;;5031616;28;20704;-55
2021/12/14 01:36:23;;;;;;;15.43;11.30;;;7.70;99.90;;;;;;5031575;28;20213;-56
2021/12/14 01:39:09;;;;;;;14.00;10.67;;;7.70;99.90;;;;;;5031794;28;20275;-55
2021/12/14 01:41:38;;;;;;;17.73;11.93;;;7.60;99.90;;;;;;5031510;28;20284;-55
2021/12/14 01:44:05;;;;;;;15.50;11.87;;;7.50;99.90;;;;;;5031277;28;20332;-55
2021/12/14 01:46:35;;;;;;;16.00;11.47;;;7.50;99.90;;;;;;5031587;28;20210;-55
2021/12/14 01:49:06;;;;;;;16.77;11.03;;;7.50;99.90;;;;;;5031287;28;20629;-55
2021/12/14 01:51:34;;;;;;;15.27;11.20;;;7.50;99.90;;;;;;5031191;28;20297;-56
2021/12/14 01:54:02;;;;;;;16.87;11.60;;;7.50;99.90;;;;;;5031199;28;20729;-56
2021/12/14 01:56:30;;;;;;;15.73;11.00;;;7.50;99.90;;;;;;5031560;28;20336;-55
2021/12/14 01:59:01;;;;;;;16.77;11.53;;;7.30;99.90;;;;;;5034108;28;20213;-55
2021/12/14 02:01:37;;;;;;;16.47;11.30;;;7.10;99.90;;;;;;5034464;28;20745;-55
2021/12/14 02:04:11;;;;;;;16.57;10.70;;;6.90;99.90;;;;;;5034748;28;20277;-56
2021/12/14 02:06:38;;;;;;;15.77;11.47;;;6.90;99.90;;;;;;5034661;28;20209;-55
2021/12/14 02:09:09;;;;;;;16.90;12.13;;;6.90;99.90;;;;;;5034819;28;20210;-56
2021/12/14 02:11:43;;;;;;;15.30;11.20;;;6.80;99.90;;;;;;5034622;28;20206;-56
2021/12/14 02:14:11;;;;;;;20.23;11.30;;;6.90;99.90;;;;;;5034628;28;20213;-56
2021/12/14 02:16:39;;;;;;;15.47;10.87;;;6.90;99.90;;;;;;5034353;28;20214;-56
2021/12/14 02:19:10;;;;;;;19.13;11.77;;;6.90;99.90;;;;;;5034746;28;20211;-55
2021/12/14 02:21:40;;;;;;;17.60;11.87;;;6.80;99.90;;;;;;5034426;28;20296;-56
2021/12/14 02:24:09;;;;;;;16.33;11.13;;;6.80;99.90;;;;;;5034521;28;20210;-56
2021/12/14 02:26:40;;;;;;;16.53;10.93;;;6.80;99.90;;;;;;5034375;28;20260;-56
2021/12/14 02:29:11;;;;;;;17.40;11.20;;;6.70;99.90;;;;;;5034344;28;20202;-55
2021/12/14 02:31:40;;;;;;;17.63;12.10;;;6.60;99.90;;;;;;5034165;28;20265;-55
2021/12/14 02:34:08;;;;;;;20.83;12.67;;;6.50;99.90;;;;;;5034405;28;20209;-56
2021/12/14 02:36:40;;;;;;;20.30;12.07;;;6.60;99.90;;;;;;5034191;28;20578;-55
2021/12/14 02:39:22;;;;;;;19.13;13.47;;;6.60;99.90;;;;;;5034190;28;20210;-56
2021/12/14 02:41:52;;;;;;;22.40;12.53;;;6.50;99.90;;;;;;5033542;28;20322;-55
2021/12/14 02:44:19;;;;;;;18.33;11.90;;;6.60;99.90;;;;;;5034245;28;20348;-56
2021/12/14 02:46:51;;;;;;;18.07;11.17;;;6.60;99.90;;;;;;5034149;28;20558;-55
2021/12/14 02:49:21;;;;;;;17.43;10.80;;;6.60;99.90;;;;;;5034087;28;20210;-55
2021/12/14 02:51:53;;;;;;;19.70;13.80;;;6.60;99.90;;;;;;5033503;28;20670;-55
2021/12/14 02:54:22;;;;;;;20.47;12.00;;;6.50;99.90;;;;;;5033801;28;20211;-56
2021/12/14 02:56:52;;;;;;;20.20;12.13;;;6.60;99.90;;;;;;5034035;28;20206;-55
2021/12/14 02:59:23;;;;;;;17.33;11.57;;;6.60;99.90;;;;;;5033649;28;20747;-56
2021/12/14 03:01:52;;;;;;;19.20;12.10;;;6.50;99.90;;;;;;5033353;28;20268;-56
2021/12/14 03:04:19;;;;;;;20.87;11.97;;;6.60;99.90;;;;;;5033845;28;20206;-56
2021/12/14 03:06:53;;;;;;;18.97;12.77;;;6.60;99.90;;;;;;5033646;28;20210;-56
2021/12/14 03:09:36;;;;;;;19.20;11.80;;;6.80;99.90;;;;;;5033467;28;20207;-55
2021/12/14 03:12:08;;;;;;;18.23;12.07;;;6.80;99.90;;;;;;5033608;28;20223;-55
2021/12/14 03:14:35;;;;;;;19.90;12.23;;;7.00;99.90;;;;;;5033436;28;20202;-55
2021/12/14 03:17:03;;;;;;;18.13;11.57;;;7.10;99.90;;;;;;5033366;28;20547;-56
2021/12/14 03:19:30;;;;;;;18.87;11.50;;;7.10;99.90;;;;;;5033455;28;20808;-57
2021/12/14 03:21:58;;;;;;;20.80;11.90;;;7.10;99.90;;;;;;5033142;28;20221;-56
2021/12/14 03:24:25;;;;;;;20.50;12.37;;;7.10;99.90;;;;;;5033404;28;20214;-56
2021/12/14 03:26:55;;;;;;;18.37;11.67;;;7.10;99.90;;;;;;5033275;28;20268;-56
2021/12/14 03:29:24;;;;;;;19.73;11.53;;;7.00;99.90;;;;;;5033091;28;20217;-56
2021/12/14 03:31:54;;;;;;;22.33;11.70;;;7.00;99.90;;;;;;5033002;28;20203;-56
2021/12/14 03:34:26;;;;;;;22.27;12.70;;;7.00;99.90;;;;;;5033455;28;20569;-56
2021/12/14 03:36:56;;;;;;;23.50;13.17;;;6.90;99.90;;;;;;5033075;28;20725;-55
2021/12/14 03:39:28;;;;;;;23.87;12.97;;;6.80;99.90;;;;;;5033206;28;20209;-56
2021/12/14 03:41:58;;;;;;;21.57;11.83;;;7.00;99.90;;;;;;5032567;28;20230;-56
2021/12/14 03:44:28;;;;;;;19.10;11.40;;;7.10;99.90;;;;;;5032926;28;20264;-56
2021/12/14 03:46:58;;;;;;;19.37;11.80;;;7.20;99.90;;;;;;5032939;28;20202;-57
2021/12/14 03:49:28;;;;;;;18.87;11.43;;;7.40;99.90;;;;;;5032978;28;20252;-57
2021/12/14 03:51:55;;;;;;;21.47;11.77;;;7.40;99.90;;;;;;5032606;28;20207;-57
2021/12/14 03:54:24;;;;;;;18.10;11.03;;;7.40;99.90;;;;;;5032886;28;20206;-56
2021/12/14 03:56:51;;;;;;;16.27;10.53;;;7.30;99.90;;;;;;5032848;28;20206;-57
2021/12/14 03:59:19;;;;;;;18.07;10.57;;;7.30;99.90;;;;;;5032951;28;20210;-56
2021/12/14 04:01:50;;;;;;;17.70;11.17;;;7.30;99.90;;;;;;5032494;28;20206;-56
2021/12/14 04:04:20;;;;;;;17.80;10.53;;;7.30;99.90;;;;;;5033047;28;20232;-57
2021/12/14 04:06:50;;;;;;;19.57;11.73;;;7.40;99.90;;;;;;5033092;28;20264;-57
2021/12/14 04:09:19;;;;;;;20.13;11.33;;;7.40;99.90;;;;;;5032424;28;20613;-55
2021/12/14 04:11:48;;;;;;;17.50;11.43;;;7.30;99.90;;;;;;5032055;28;20682;-56
2021/12/14 04:14:15;;;;;;;18.17;11.20;;;7.20;99.90;;;;;;5032421;28;20209;-57
2021/12/14 04:16:45;;;;;;;17.67;10.43;;;7.20;99.90;;;;;;5032203;28;20627;-56
2021/12/14 04:19:15;;;;;;;20.23;11.93;;;7.10;99.90;;;;;;5032222;28;20670;-56
2021/12/14 04:21:44;;;;;;;17.13;10.57;;;6.90;99.90;;;;;;5031392;28;20213;-55
2021/12/14 04:24:14;;;;;;;19.00;12.97;;;6.90;99.90;;;;;;5032204;28;20745;-55
2021/12/14 04:26:45;;;;;;;16.70;11.07;;;6.80;99.90;;;;;;5032299;28;20210;-56
2021/12/14 04:29:14;;;;;;;18.57;11.17;;;6.80;99.90;;;;;;5032168;28;20209;-56
2021/12/14 04:31:43;;;;;;;19.77;11.53;;;6.80;99.90;;;;;;5032007;28;20210;-56
2021/12/14 04:34:11;;;;;;;19.53;10.90;;;6.80;99.90;;;;;;5031901;28;20205;-57
2021/12/14 04:36:39;;;;;;;17.50;10.83;;;6.90;99.90;;;;;;5032160;28;20206;-55
2021/12/14 04:39:31;;;;;;;20.93;11.70;;;6.90;99.90;;;;;;5032313;28;20202;-55
2021/12/14 04:53:34;;;;;;;18.70;11.13;;;7.00;99.90;;;;;;5024713;28;20225;-55
2021/12/14 04:56:01;;;;;;;19.40;10.23;;;7.10;99.90;;;;;;5032087;28;20231;-55
2021/12/14 04:58:31;;;;;;;18.47;10.77;;;7.20;99.90;;;;;;5031966;28;20221;-56
2021/12/14 05:01:01;;;;;;;15.73;9.50;;;7.30;99.90;;;;;;5032199;28;20210;-55
2021/12/14 05:03:31;;;;;;;16.20;9.97;;;7.40;99.90;;;;;;5031465;28;20234;-56
2021/12/14 05:06:10;;;;;;;17.90;9.53;;;7.50;99.90;;;;;;5031777;28;20556;-56
2021/12/14 05:11:23;;;;;;;17.00;11.20;;;7.50;99.90;;;;;;5032027;28;20325;-56
2021/12/14 05:13:53;;;;;;;18.20;10.53;;;7.60;99.90;;;;;;5031789;28;20237;-56
2021/12/14 05:16:23;;;;;;;17.93;10.63;;;7.60;99.90;;;;;;5032397;28;20214;-55
2021/12/14 05:18:53;;;;;;;17.83;10.83;;;7.60;99.90;;;;;;5032545;28;20202;-56
2021/12/14 05:21:24;;;;;;;15.27;10.17;;;7.50;99.90;;;;;;5032241;28;20206;-55
2021/12/14 05:23:51;;;;;;;17.93;11.70;;;7.50;99.90;;;;;;5031369;28;20638;-55
2021/12/14 05:26:18;;;;;;;18.17;10.73;;;7.40;99.90;;;;;;5031642;28;20210;-55
2021/12/14 05:28:45;;;;;;;20.97;11.47;;;7.50;99.90;;;;;;5032214;28;20206;-56
2021/12/14 05:31:12;;;;;;;15.67;9.40;;;7.50;99.90;;;;;;5031935;28;20210;-55
2021/12/14 05:33:41;;;;;;;13.67;9.13;;;7.50;99.90;;;;;;5035435;28;20741;-56
2021/12/14 05:36:14;;;;;;;12.90;8.07;;;7.50;99.90;;;;;;5035478;28;20206;-56
2021/12/14 05:38:51;;;;;;;12.23;8.47;;;7.40;99.90;;;;;;5035334;28;20206;-56
2021/12/14 05:44:05;;;;;;;13.97;8.77;;;7.70;99.90;;;;;;5089365;22;20238;-55
2021/12/14 05:46:33;;;;;;;12.63;8.50;;;7.80;99.90;;;;;;5074909;28;20252;-56
2021/12/14 05:49:04;;;;;;;13.37;8.63;;;7.80;99.90;;;;;;5075021;28;20213;-55
2021/12/14 05:51:33;;;;;;;13.33;8.87;;;7.90;99.90;;;;;;5074869;28;20213;-56
2021/12/14 05:54:00;;;;;;;12.47;8.30;;;8.00;99.90;;;;;;5074638;28;20704;-56
2021/12/14 05:56:29;;;;;;;10.10;7.63;;;8.00;99.90;;;;;;5074813;28;20254;-56
2021/12/14 05:58:58;;;;;;;8.73;7.57;;;8.10;99.90;;;;;;5074737;28;20204;-56
2021/12/14 06:01:28;;;;;;;10.13;7.70;;;8.10;99.90;;;;;;5074618;28;20209;-56
2021/12/14 06:03:57;;;;;;;8.33;6.73;;;8.10;99.90;;;;;;5074359;28;20233;-56
2021/12/14 06:06:29;;;;;;;8.40;6.50;;;8.00;99.90;;;;;;5074890;28;20208;-56
2021/12/14 06:09:03;;;;;;;9.30;7.27;;;8.10;99.90;;;;;;5074878;28;20235;-56
2021/12/14 06:11:31;;;;;;;8.90;6.47;;;8.20;99.90;;;;;;5074550;28;20216;-55
2021/12/14 06:13:58;;;;;;;8.53;6.47;;;8.20;99.90;;;;;;5074234;28;20248;-57
2021/12/14 06:16:29;;;;;;;6.67;5.63;;;8.20;99.90;;;;;;5074364;28;20418;-55
2021/12/14 06:19:13;;;;;;;8.37;6.53;;;8.20;99.90;;;;;;5074670;28;20213;-55
2021/12/14 06:21:42;;;;;;;7.03;5.70;;;8.10;99.90;;;;;;5074347;28;20204;-56
2021/12/14 06:24:11;;;;;;;6.40;5.73;;;8.00;99.90;;;;;;5074318;28;20255;-55
2021/12/14 06:26:39;;;;;;;7.33;5.97;;;8.00;99.90;;;;;;5074240;28;20205;-53
2021/12/14 06:29:10;;;;;;;6.43;5.27;;;8.00;99.90;;;;;;5074526;28;20205;-55
2021/12/14 06:31:38;;;;;;;7.70;6.00;;;8.00;99.90;;;;;;5074415;28;20209;-55
2021/12/14 06:34:21;;;;;;;8.27;6.87;;;8.10;99.90;;;;;;5074290;28;20225;-55
2021/12/14 06:37:54;;;;;;;15.00;10.97;;;8.00;99.90;;;;;;5074310;28;20209;-55
2021/12/14 06:40:23;;;;;;;10.77;7.63;;;7.90;99.90;;;;;;5074283;28;20205;-54
2021/12/14 06:42:54;;;;;;;10.67;7.83;;;8.00;99.90;;;;;;5073170;28;20692;-54
2021/12/14 06:45:26;;;;;;;11.93;8.90;;;8.00;99.90;;;;;;5073608;28;20208;-55
2021/12/14 06:47:57;;;;;;;6.80;5.73;;;8.10;99.90;;;;;;5074019;28;20193;-55
2021/12/14 06:50:28;;;;;;;7.07;5.73;;;8.10;99.90;;;;;;5073840;28;20570;-55
2021/12/14 06:52:59;;;;;;;5.60;4.70;;;8.20;99.90;;;;;;5073596;28;20754;-56
2021/12/14 06:55:27;;;;;;;5.67;4.73;;;8.10;99.90;;;;;;5073877;28;20205;-56
2021/12/14 06:58:09;;;;;;;5.90;4.70;;;8.10;99.90;;;;;;5073548;28;20216;-55
2021/12/14 07:00:38;;;;;;;5.90;4.97;;;8.10;99.90;;;;;;5073757;28;20205;-54
2021/12/14 07:03:05;;;;;;;5.53;4.93;;;8.10;99.90;;;;;;5073057;28;20715;-54
2021/12/14 07:05:32;;;;;;;18.27;5.70;;;8.10;99.90;;;;;;5073483;28;20232;-55
2021/12/14 07:08:09;;;;;;;9.17;6.70;;;8.10;99.90;;;;;;5073470;28;20216;-55
2021/12/14 07:10:37;;;;;;;7.73;5.30;;;8.10;99.90;;;;;;5073284;28;20204;-55
2021/12/14 07:13:11;;;;;;;5.90;4.87;;;8.20;99.90;;;;;;5072998;28;20229;-56
2021/12/14 07:15:38;;;;;;;7.07;5.57;;;8.30;99.90;;;;;;5073307;28;20209;-56
2021/12/14 07:18:07;;;;;;;6.03;5.23;;;8.30;99.90;;;;;;5073338;28;20209;-54
2021/12/14 07:20:38;;;;;;;7.17;5.50;;;8.30;99.90;;;;;;5073170;28;20208;-55
2021/12/14 07:23:18;;;;;;;7.60;6.03;;;8.30;99.90;;;;;;5072694;28;20236;-54
2021/12/14 07:25:51;;;;;;;7.00;5.97;;;8.30;99.90;;;;;;5073240;28;20213;-55
2021/12/14 07:28:19;;;;;;;9.33;7.70;;;8.30;99.90;;;;;;5073141;28;20258;-55
2021/12/14 07:30:49;;;;;;;10.30;7.43;;;8.30;99.90;;;;;;5072966;28;20213;-55
2021/12/14 07:33:17;;;;;;;7.53;6.27;;;8.20;99.90;;;;;;5072594;28;20224;-54
2021/12/14 07:35:51;;;;;;;8.53;7.10;;;8.10;99.90;;;;;;5072873;28;20209;-55
2021/12/14 07:38:31;;;;;;;9.17;7.27;;;8.00;99.90;;;;;;5073074;28;20209;-56
2021/12/14 07:41:03;;;;;;;8.07;6.23;;;8.00;99.90;;;;;;5072831;28;20251;-54
2021/12/14 07:43:32;;;;;;;9.57;7.03;;;7.70;99.90;;;;;;5072326;28;20236;-54
2021/12/14 07:45:59;;;;;;;10.40;6.87;;;7.70;99.90;;;;;;5072657;28;20212;-55
2021/12/14 07:48:43;;;;;;;8.77;6.50;;;7.60;99.90;;;;;;5072811;28;20676;-55
2021/12/14 07:51:11;;;;;;;9.90;6.80;;;7.50;99.90;;;;;;5072661;28;20682;-56
2021/12/14 07:53:43;;;;;;;8.07;6.40;;;7.40;99.90;;;;;;5072190;28;20216;-55
2021/12/14 07:56:22;;;;;;;8.10;6.73;;;7.40;99.90;;;;;;5071479;28;20208;-55
2021/12/14 07:58:49;;;;;;;9.77;7.23;;;7.40;99.90;;;;;;5072326;28;20625;-55
2021/12/14 08:01:16;;;;;;;10.43;6.70;;;7.50;99.90;;;;;;5072481;28;20590;-55
2021/12/14 08:03:43;;;;;;;8.57;7.57;;;7.60;99.90;;;;;;5071933;28;20229;-56
2021/12/14 08:06:12;;;;;;;6.70;6.00;;;7.80;99.90;;;;;;5072218;28;20578;-55
2021/12/14 08:08:45;;;;;;;7.90;6.47;;;7.80;99.90;;;;;;5072140;28;20254;-55
2021/12/14 08:14:05;;;;;;;9.10;6.50;;;7.70;99.90;;;;;;5072030;28;20589;-55
2021/12/14 08:16:40;;;;;;;7.60;6.20;;;7.60;99.90;;;;;;5072235;28;20230;-55
2021/12/14 08:19:07;;;;;;;7.47;6.20;;;7.60;99.90;;;;;;5072168;28;20209;-56
2021/12/14 08:21:33;;;;;;;7.90;6.67;;;7.70;99.90;;;;;;5072051;28;20208;-56
2021/12/14 08:24:06;;;;;;;5.97;5.17;;;7.90;99.90;;;;;;5071803;28;20236;-55
2021/12/14 08:26:36;;;;;;;7.30;5.90;;;7.90;99.90;;;;;;5072217;28;20590;-55
2021/12/14 08:29:07;;;;;;;8.17;6.10;;;7.90;99.90;;;;;;5072167;28;20212;-56
2021/12/14 08:31:36;;;;;;;8.23;6.60;;;8.00;99.90;;;;;;5072216;28;20209;-57
2021/12/14 08:34:06;;;;;;;7.27;5.97;;;8.10;99.90;;;;;;5071632;28;20247;-55
2021/12/14 08:36:38;;;;;;;7.77;6.10;;;8.20;99.90;;;;;;5072088;28;20215;-56
2021/12/14 08:39:09;;;;;;;6.70;5.40;;;8.30;99.90;;;;;;5071898;28;20664;-56
2021/12/14 08:41:42;;;;;;;7.10;5.43;;;8.30;99.90;;;;;;5072142;28;20208;-56
2021/12/14 08:44:11;;;;;;;6.53;5.53;;;8.40;99.90;;;;;;5071300;28;20692;-56
2021/12/14 08:46:40;;;;;;;7.20;5.47;;;8.40;99.90;;;;;;5072108;28;20338;-56
2021/12/14 08:49:07;;;;;;;7.33;5.63;;;8.30;99.90;;;;;;5071880;28;20209;-55
2021/12/14 08:51:37;;;;;;;7.43;5.60;;;8.40;99.90;;;;;;5071969;28;20204;-56
2021/12/14 08:54:08;;;;;;;6.80;5.50;;;8.50;99.90;;;;;;5071424;28;20727;-57
2021/12/14 08:56:44;;;;;;;7.67;6.20;;;8.50;99.90;;;;;;5071693;28;20236;-56
2021/12/14 08:59:11;;;;;;;7.73;5.63;;;8.60;99.90;;;;;;5072027;28;20265;-55
2021/12/14 09:01:40;;;;;;;8.47;6.40;;;8.50;99.90;;;;;;5071790;28;20204;-56
2021/12/14 09:04:11;;;;;;;8.73;6.27;;;8.40;99.90;;;;;;5071263;28;20237;-56
2021/12/14 09:06:41;;;;;;;9.80;6.87;;;8.50;99.90;;;;;;5072649;28;20216;-56
2021/12/14 09:09:15;;;;;;;9.37;6.93;;;8.50;99.90;;;;;;5076313;28;20205;-56
2021/12/14 09:11:46;;;;;;;8.87;6.60;;;8.60;99.90;;;;;;5076286;28;20211;-57
2021/12/14 09:14:15;;;;;;;8.20;6.37;;;8.60;99.90;;;;;;5076198;28;20236;-55
2021/12/14 09:16:47;;;;;;;8.67;6.33;;;8.60;99.90;;;;;;5075759;28;20201;-56
2021/12/14 09:19:18;;;;;;;6.90;5.93;;;8.90;99.90;;;;;;5075963;28;20213;-55
2021/12/14 09:21:48;;;;;;;6.83;5.90;;;9.10;99.90;;;;;;5075809;28;20208;-55
2021/12/14 09:24:18;;;;;;;10.77;6.17;;;9.20;99.90;;;;;;5075798;28;20235;-56
2021/12/14 09:26:47;;;;;;;9.80;5.53;;;9.40;99.90;;;;;;5075869;28;20346;-56
2021/12/14 09:29:17;;;;;;;6.10;5.13;;;9.50;99.90;;;;;;5076046;28;20209;-55
2021/12/14 09:31:48;;;;;;;6.10;5.00;;;9.50;99.90;;;;;;5075686;28;20201;-56
2021/12/14 09:34:18;;;;;;;6.30;4.77;;;9.50;99.90;;;;;;5075097;28;20217;-56
2021/12/14 09:36:45;;;;;;;6.43;4.77;;;9.50;99.90;;;;;;5075034;28;20693;-55
2021/12/14 09:39:17;;;;;;;4.93;4.27;;;9.70;99.90;;;;;;5075575;28;20259;-55
2021/12/14 09:41:50;;;;;;;5.77;4.70;;;9.60;99.90;;;;;;5075419;28;20205;-55
2021/12/14 09:44:17;;;;;;;5.13;4.50;;;9.70;99.90;;;;;;5075066;28;20258;-55
2021/12/14 09:46:44;;;;;;;6.00;5.13;;;9.70;99.90;;;;;;5075367;28;20204;-55
2021/12/14 09:49:12;;;;;;;6.18;5.57;;;9.80;99.90;;;;;;5071303;28;20830;-60
2021/12/14 09:51:43;;;;;;;6.90;5.33;;;10.00;99.90;;;;;;5075433;28;20212;-58
2021/12/14 09:54:15;;;;;;;7.73;5.20;;;10.30;99.90;;;;;;5075165;28;20227;-55
2021/12/14 09:56:47;;;;;;;7.20;5.27;;;10.50;99.90;;;;;;5074881;28;20258;-57
2021/12/14 09:59:15;;;;;;;6.80;4.70;;;10.70;99.90;;;;;;5074795;28;20737;-56
2021/12/14 10:01:48;;;;;;;7.30;5.33;;;10.80;99.90;;;;;;5075069;28;20672;-60
2021/12/14 10:04:18;;;;;;;6.07;5.00;;;10.80;99.90;;;;;;5074488;28;20654;-59
2021/12/14 10:06:46;;;;;;;5.60;4.53;;;10.50;99.90;;;;;;5075161;28;20614;-63
2021/12/14 10:09:16;;;;;;;5.67;4.70;;;10.50;99.90;;;;;;5075340;28;20212;-60
2021/12/14 10:12:00;;;;;;;5.57;4.80;;;10.50;99.90;;;;;;5074789;28;20235;-65
2021/12/14 10:14:30;;;;;;;6.33;4.60;;;10.50;99.90;;;;;;5075086;28;20232;-55
2021/12/14 10:16:57;;;;;;;5.13;4.63;;;10.60;99.90;;;;;;5071620;28;20833;-58
2021/12/14 10:19:27;;;;;;;6.13;5.10;;;10.60;99.90;;;;;;5073963;28;20227;-58
2021/12/14 10:21:57;;;;;;;5.20;4.70;;;10.70;99.90;;;;;;5075049;28;20209;-61
2021/12/14 10:24:24;;;;;;;6.13;4.73;;;10.80;99.90;;;;;;5074100;28;20881;-58
2021/12/14 10:26:55;;;;;;;7.40;4.70;;;10.70;99.90;;;;;;5074715;28;20212;-58
2021/12/14 10:29:26;;;;;;;6.77;5.17;;;10.70;99.90;;;;;;5074504;28;20209;-64
2021/12/14 10:31:58;;;;;;;5.77;4.80;;;10.60;99.90;;;;;;5074410;28;20278;-63
2021/12/14 10:34:28;;;;;;;5.20;4.63;;;10.60;99.90;;;;;;5073927;28;20229;-59
2021/12/14 10:37:07;;;;;;;4.67;4.17;;;10.60;99.90;;;;;;5074142;28;20208;-58
2021/12/14 10:42:36;;;;;;;5.30;4.63;;;10.60;99.90;;;;;;5074660;28;20270;-58
2021/12/14 10:42:52;;;;;;;6.00;4.70;;;10.60;99.90;;;;;;5073312;28;20542;-59
2021/12/14 10:45:19;;;;;;;5.63;4.30;;;10.70;99.90;;;;;;5074040;28;20225;-59
2021/12/14 10:47:46;;;;;;;6.37;4.03;;;10.60;99.90;;;;;;5074174;28;20213;-58
2021/12/14 10:50:16;;;;;;;7.67;4.60;;;10.50;99.90;;;;;;5074100;28;20255;-59
2021/12/14 10:52:43;;;;;;;6.10;4.10;;;10.60;99.90;;;;;;5073673;28;20476;-58
2021/12/14 10:55:15;;;;;;;5.93;4.20;;;10.60;99.90;;;;;;5073807;28;20631;-60
2021/12/14 10:57:44;;;;;;;8.37;4.50;;;10.80;99.90;;;;;;5073707;28;20672;-57
2021/12/14 11:00:15;;;;;;;7.97;5.93;;;10.90;99.90;;;;;;5073731;28;20205;-59
2021/12/14 11:02:43;;;;;;;6.07;4.23;;;11.00;99.90;;;;;;5073516;28;20240;-58
2021/12/14 11:05:16;;;;;;;7.07;4.53;;;11.00;99.90;;;;;;5073528;28;20225;-59
2021/12/14 11:07:45;;;;;;;4.63;4.00;;;10.80;99.90;;;;;;5074063;28;20208;-58
2021/12/14 11:10:15;;;;;;;6.33;4.23;;;10.70;99.90;;;;;;5073503;28;20332;-60
2021/12/14 11:12:48;;;;;;;5.23;4.20;;;10.50;99.90;;;;;;5073375;28;20278;-59
2021/12/14 11:15:20;;;;;;;4.90;4.40;;;10.70;99.90;;;;;;5073555;28;20693;-60
2021/12/14 11:20:36;;;;;;;4.80;4.07;;;11.30;99.90;;;;;;5073134;28;20577;-58
2021/12/14 11:23:08;;;;;;;5.27;4.30;;;11.60;99.90;;;;;;5072849;28;20225;-55
2021/12/14 11:25:44;;;;;;;4.90;4.30;;;11.60;99.90;;;;;;5073149;28;20690;-55
2021/12/14 11:28:15;;;;;;;7.33;4.50;;;11.70;99.90;;;;;;5073460;28;20204;-57
2021/12/14 11:30:48;;;;;;;6.23;4.80;;;11.80;99.90;;;;;;5072820;28;20213;-57
2021/12/14 11:33:19;;;;;;;5.83;4.93;;;11.90;99.90;;;;;;5072681;28;20234;-56
2021/12/14 11:35:50;;;;;;;5.30;4.80;;;11.90;99.90;;;;;;5073273;28;20211;-55
2021/12/14 11:38:27;;;;;;;5.57;4.80;;;11.80;99.90;;;;;;5073484;28;20205;-56
2021/12/14 11:40:56;;;;;;;6.20;4.90;;;11.90;99.90;;;;;;5074553;28;20216;-57
2021/12/14 11:43:27;;;;;;;6.07;5.47;;;12.00;99.90;;;;;;5073225;28;20244;-58
2021/12/14 11:45:54;;;;;;;7.60;5.00;;;12.20;99.90;;;;;;5072952;28;20228;-58
2021/12/14 11:48:30;;;;;;;6.37;5.20;;;12.20;99.90;;;;;;5072717;28;20209;-58
2021/12/14 11:50:58;;;;;;;8.63;5.20;;;12.10;99.90;;;;;;5073061;28;20211;-57
2021/12/14 11:53:25;;;;;;;5.73;5.10;;;12.20;99.90;;;;;;5073108;28;20221;-58
2021/12/14 11:55:55;;;;;;;5.73;5.13;;;12.30;99.90;;;;;;5072716;28;20209;-58
2021/12/14 11:58:30;;;;;;;5.83;5.07;;;12.40;99.90;;;;;;5072596;28;20205;-57
2021/12/14 12:01:04;;;;;;;6.37;4.90;;;12.40;99.90;;;;;;5072405;28;20212;-62
2021/12/14 12:03:39;;;;;;;7.97;4.80;;;12.50;99.90;;;;;;5072126;28;20228;-55
2021/12/14 12:06:13;;;;;;;9.03;5.10;;;12.60;99.90;;;;;;5072218;28;20225;-56
2021/12/14 12:11:36;;;;;;;7.33;5.73;;;12.70;99.90;;;;;;5072308;28;20279;-57
2021/12/14 12:14:18;;;;;;;7.23;5.57;;;12.50;99.90;;;;;;5072012;28;20229;-57
2021/12/14 12:16:45;;;;;;;8.93;5.77;;;11.90;99.90;;;;;;5071962;28;20204;-57
2021/12/14 12:19:14;;;;;;;6.77;5.30;;;11.60;99.90;;;;;;5071786;28;20690;-56
2021/12/14 12:21:46;;;;;;;10.03;5.80;;;11.50;99.90;;;;;;5072192;28;20205;-58
2021/12/14 12:24:35;;;;;;;8.70;6.53;;;11.60;99.90;;;;;;5071517;28;20229;-56
2021/12/14 12:27:39;;;;;;;7.83;6.90;;;11.60;99.90;;;;;;5071561;28;20201;-57
2021/12/14 12:30:28;;;;;;;6.30;5.47;;;11.70;99.90;;;;;;5049290;28;20292;-56
2021/12/14 12:32:56;;;;;;;7.60;6.07;;;11.80;99.90;;;;;;5048882;28;20225;-56
2021/12/14 12:35:31;;;;;;;7.17;5.70;;;11.80;99.90;;;;;;5063603;28;20247;-57
2021/12/14 12:38:00;;;;;;;6.80;5.90;;;11.60;99.90;;;;;;5071862;28;20266;-57
2021/12/14 12:40:46;;;;;;;6.57;5.77;;;11.30;99.90;;;;;;5072177;28;20205;-60
2021/12/14 12:43:15;;;;;;;7.27;5.83;;;11.10;99.90;;;;;;5070849;28;20286;-58
2021/12/14 12:45:58;;;;;;;6.80;6.03;;;11.10;99.90;;;;;;5062376;28;20240;-57
2021/12/14 12:48:46;;;;;;;7.93;6.77;;;11.20;99.90;;;;;;5072072;28;20258;-62
2021/12/14 12:51:44;;;;;;;9.07;6.77;;;11.20;99.90;;;;;;5071842;28;20559;-58
2021/12/14 12:54:29;;;;;;;8.90;6.47;;;11.30;99.90;;;;;;5071079;28;20225;-60
2021/12/14 12:57:31;;;;;;;8.57;6.07;;;11.30;99.90;;;;;;5071528;28;20254;-58
2021/12/14 13:00:18;;;;;;;7.87;6.03;;;11.50;99.90;;;;;;5071516;28;20236;-58
2021/12/14 13:02:50;;;;;;;7.67;5.80;;;11.60;99.90;;;;;;5070925;28;20243;-59
2021/12/14 13:05:22;;;;;;;7.60;6.07;;;11.60;99.90;;;;;;5071412;28;20235;-59
2021/12/14 13:07:53;;;;;;;8.23;6.23;;;11.50;99.90;;;;;;5071306;28;20672;-61
2021/12/14 13:10:27;;;;;;;7.33;6.23;;;11.30;99.90;;;;;;5071091;28;20644;-60
2021/12/14 13:13:01;;;;;;;7.53;6.30;;;11.20;99.90;;;;;;5071026;28;20231;-60
2021/12/14 13:15:48;;;;;;;9.37;6.80;;;11.00;99.90;;;;;;5071625;28;20235;-60
2021/12/14 13:18:38;;;;;;;7.63;6.60;;;10.80;99.90;;;;;;5071724;28;20208;-63
2021/12/14 13:21:10;;;;;;;8.33;6.60;;;10.90;99.90;;;;;;5066401;28;20291;-64
2021/12/14 13:23:41;;;;;;;8.77;6.60;;;11.00;99.90;;;;;;5071078;28;20257;-60
2021/12/14 13:26:34;;;;;;;10.03;6.83;;;11.10;99.90;;;;;;5071499;28;20221;-62
2021/12/14 13:29:13;;;;;;;8.50;6.37;;;11.10;99.90;;;;;;5071218;28;20205;-62
2021/12/14 13:31:43;;;;;;;9.13;7.37;;;11.20;99.90;;;;;;5071604;28;20205;-62
2021/12/14 13:34:16;;;;;;;8.10;6.53;;;11.20;99.90;;;;;;5071075;28;20567;-63
2021/12/14 13:36:43;;;;;;;9.07;6.83;;;11.20;99.90;;;;;;5071194;28;20696;-60